Time;durP1;ratioP1;P1;durP2;ratioP2;P2;SDS_P1;SDS_P2;PMS_P1;PMS_P2;Temp;Humidity;BMP_temperature;BMP_pressure;BME280_temperature;BME280_humidity;BME280_pressure;Samples;Min_cycle;Max_cycle;Signal;HPM_P1;HPM_P2
2021/10/19 00:01:10;;;;;;;58.47;2.90;;;5.90;1.00;;;;;;5071651;28;20303;-72
2021/10/19 00:03:37;;;;;;;58.78;3.03;;;5.90;1.00;;;;;;5071619;28;20205;-72
2021/10/19 00:06:04;;;;;;;58.70;2.88;;;5.90;1.00;;;;;;5071363;28;20270;-72
2021/10/19 00:08:31;;;;;;;58.67;3.42;;;6.00;1.00;;;;;;5071409;28;20207;-72
2021/10/19 00:10:58;;;;;;;58.67;2.90;;;6.00;1.00;;;;;;5071736;28;20280;-72
2021/10/19 00:13:25;;;;;;;58.58;2.67;;;6.00;1.00;;;;;;5071382;28;20800;-72
2021/10/19 00:15:53;;;;;;;58.58;2.78;;;6.00;1.00;;;;;;5071246;28;20206;-72
2021/10/19 00:18:20;;;;;;;58.50;2.75;;;6.00;1.00;;;;;;5071438;28;20295;-71
2021/10/19 00:20:47;;;;;;;58.58;3.00;;;6.00;1.00;;;;;;5071498;28;20617;-71
2021/10/19 00:23:13;;;;;;;58.65;2.88;;;6.00;1.00;;;;;;5071431;28;20681;-71
2021/10/19 00:25:40;;;;;;;58.92;3.42;;;6.00;1.00;;;;;;5075416;28;20233;-71
2021/10/19 00:28:07;;;;;;;58.60;2.88;;;6.00;1.00;;;;;;5075423;28;20209;-71
2021/10/19 00:30:34;;;;;;;58.90;3.00;;;6.00;1.00;;;;;;5075300;28;20597;-71
2021/10/19 00:33:02;;;;;;;58.67;3.00;;;5.90;1.00;;;;;;5075059;28;20694;-71
2021/10/19 00:35:29;;;;;;;58.30;2.75;;;6.00;1.00;;;;;;5075052;28;20705;-71
2021/10/19 00:37:56;;;;;;;58.75;3.10;;;5.90;1.00;;;;;;5075371;28;20240;-70
2021/10/19 00:40:23;;;;;;;58.58;2.72;;;5.90;1.00;;;;;;5075251;28;20320;-71
2021/10/19 00:42:50;;;;;;;59.15;3.20;;;5.90;1.00;;;;;;5075076;28;20244;-71
2021/10/19 00:45:17;;;;;;;58.47;2.80;;;5.90;1.00;;;;;;5075061;28;20208;-71
2021/10/19 00:47:48;;;;;;;58.28;2.63;;;5.80;1.00;;;;;;5074540;28;20215;-71
2021/10/19 00:50:18;;;;;;;58.38;2.88;;;5.80;1.00;;;;;;5074854;28;20225;-70
2021/10/19 00:52:46;;;;;;;60.05;3.78;;;5.80;1.00;;;;;;5075029;28;20252;-71
2021/10/19 00:55:13;;;;;;;58.60;2.78;;;5.70;1.00;;;;;;5074823;28;20243;-71
2021/10/19 00:57:40;;;;;;;58.60;2.88;;;5.80;1.00;;;;;;5074988;28;20296;-71
2021/10/19 01:00:09;;;;;;;58.60;2.83;;;5.70;1.00;;;;;;5074988;28;20311;-71
2021/10/19 01:02:38;;;;;;;58.58;2.92;;;5.70;1.00;;;;;;5074591;28;20631;-71
2021/10/19 01:05:05;;;;;;;59.15;3.80;;;5.70;1.00;;;;;;5074823;28;20255;-71
2021/10/19 01:07:33;;;;;;;58.58;2.85;;;5.70;1.00;;;;;;5074558;28;20212;-71
2021/10/19 01:10:02;;;;;;;58.40;3.08;;;5.70;1.00;;;;;;5074578;28;20260;-71
2021/10/19 01:12:29;;;;;;;59.88;3.42;;;5.80;1.00;;;;;;5074351;28;20705;-71
2021/10/19 01:14:56;;;;;;;58.50;2.92;;;5.80;1.00;;;;;;5074508;28;20590;-71
2021/10/19 01:17:22;;;;;;;58.65;3.00;;;5.80;1.00;;;;;;5074137;28;20762;-71
2021/10/19 01:19:52;;;;;;;58.45;2.90;;;5.80;1.00;;;;;;5074588;28;20225;-71
2021/10/19 01:22:19;;;;;;;58.45;2.78;;;5.80;1.00;;;;;;5074419;28;20236;-71
2021/10/19 01:24:45;;;;;;;58.47;2.60;;;5.80;1.00;;;;;;5074346;28;20291;-71
2021/10/19 01:27:12;;;;;;;58.60;2.90;;;5.80;1.00;;;;;;5073938;28;20205;-71
2021/10/19 01:29:39;;;;;;;58.70;2.90;;;5.80;1.00;;;;;;5073981;28;20793;-71
2021/10/19 01:32:07;;;;;;;58.55;2.85;;;5.90;1.00;;;;;;5074044;28;20229;-71
2021/10/19 01:34:35;;;;;;;58.55;2.90;;;5.90;1.00;;;;;;5073939;28;20220;-71
2021/10/19 01:37:04;;;;;;;58.47;2.70;;;6.00;1.00;;;;;;5072817;28;20673;-71
2021/10/19 01:39:31;;;;;;;58.53;3.10;;;6.00;1.00;;;;;;5072813;28;20261;-71
2021/10/19 01:41:58;;;;;;;59.35;3.85;;;6.10;1.00;;;;;;5074219;28;20308;-71
2021/10/19 01:44:25;;;;;;;59.10;3.50;;;6.10;1.00;;;;;;5073951;28;20649;-71
2021/10/19 01:46:52;;;;;;;58.35;2.95;;;6.20;1.00;;;;;;5073467;28;20235;-71
2021/10/19 01:49:19;;;;;;;58.35;3.00;;;6.20;1.00;;;;;;5073815;28;20260;-71
2021/10/19 01:51:45;;;;;;;58.50;2.80;;;6.20;1.00;;;;;;5073902;28;20204;-71
2021/10/19 01:54:14;;;;;;;58.47;2.85;;;6.20;1.00;;;;;;5073882;28;20226;-71
2021/10/19 01:56:40;;;;;;;58.35;2.78;;;6.20;1.00;;;;;;5073633;28;20236;-71
2021/10/19 01:59:07;;;;;;;58.47;3.05;;;6.20;1.00;;;;;;5073905;28;20231;-71
2021/10/19 02:01:38;;;;;;;58.58;3.00;;;6.20;1.00;;;;;;5073669;28;20237;-71
2021/10/19 02:04:05;;;;;;;60.55;3.10;;;6.10;1.00;;;;;;5073557;28;20292;-71
2021/10/19 02:06:32;;;;;;;58.30;2.67;;;6.10;1.00;;;;;;5073791;28;20238;-71
2021/10/19 02:08:59;;;;;;;58.47;3.00;;;6.10;1.00;;;;;;5073687;28;20757;-71
2021/10/19 02:11:27;;;;;;;58.35;2.85;;;6.10;1.00;;;;;;5073748;28;20230;-71
2021/10/19 02:13:54;;;;;;;58.47;2.80;;;6.10;1.00;;;;;;5073417;28;20349;-71
2021/10/19 02:16:21;;;;;;;58.47;2.90;;;6.10;1.00;;;;;;5073045;28;20301;-71
2021/10/19 02:18:47;;;;;;;58.78;3.20;;;6.10;1.00;;;;;;5073200;28;20312;-71
2021/10/19 02:21:15;;;;;;;58.60;3.10;;;6.20;1.00;;;;;;5073476;28;20663;-71
2021/10/19 02:23:42;;;;;;;58.65;2.80;;;6.20;1.00;;;;;;5073361;28;20205;-72
2021/10/19 02:26:09;;;;;;;59.13;3.63;;;6.20;1.00;;;;;;5072909;28;20211;-71
2021/10/19 02:28:37;;;;;;;58.55;3.10;;;6.20;1.00;;;;;;5073185;28;20235;-72
2021/10/19 02:31:05;;;;;;;58.38;2.75;;;6.20;1.00;;;;;;5073065;28;20212;-72
2021/10/19 02:33:32;;;;;;;58.45;3.10;;;6.30;1.00;;;;;;5072874;28;20420;-72
2021/10/19 02:35:59;;;;;;;58.45;2.85;;;6.30;1.00;;;;;;5072948;28;20202;-71
2021/10/19 02:38:26;;;;;;;58.50;2.90;;;6.30;1.00;;;;;;5073055;28;20201;-71
2021/10/19 02:40:53;;;;;;;58.30;2.70;;;6.40;1.00;;;;;;5073018;28;20291;-72
2021/10/19 02:43:20;;;;;;;58.40;3.00;;;6.40;1.00;;;;;;5072952;28;20292;-72
2021/10/19 02:45:48;;;;;;;58.47;2.63;;;6.50;1.00;;;;;;5072545;28;20202;-72
2021/10/19 02:48:15;;;;;;;58.60;3.53;;;6.50;1.00;;;;;;5072398;28;20201;-71
2021/10/19 02:50:42;;;;;;;58.40;2.80;;;6.50;1.00;;;;;;5072713;28;20215;-72
2021/10/19 02:53:09;;;;;;;58.75;3.25;;;6.50;1.00;;;;;;5072847;28;20311;-72
2021/10/19 02:55:36;;;;;;;58.38;2.80;;;6.60;1.00;;;;;;5072301;28;20297;-72
2021/10/19 02:58:03;;;;;;;58.60;3.30;;;6.60;1.00;;;;;;5072679;28;20413;-72
2021/10/19 03:00:30;;;;;;;58.47;2.80;;;6.60;1.00;;;;;;5072508;28;20230;-72
2021/10/19 03:02:58;;;;;;;58.28;2.67;;;6.70;1.00;;;;;;5072588;28;20215;-72
2021/10/19 03:05:25;;;;;;;59.20;3.28;;;6.70;1.00;;;;;;5071959;28;20677;-72
2021/10/19 03:07:52;;;;;;;58.30;2.90;;;6.70;1.00;;;;;;5072530;28;20295;-72
2021/10/19 03:10:19;;;;;;;58.75;3.10;;;6.80;1.00;;;;;;5072750;28;20229;-72
2021/10/19 03:12:46;;;;;;;59.20;4.88;;;6.80;1.00;;;;;;5072343;28;20230;-71
2021/10/19 03:15:13;;;;;;;58.30;2.83;;;6.90;1.00;;;;;;5072217;28;20210;-72
2021/10/19 03:17:40;;;;;;;58.85;3.20;;;6.90;1.00;;;;;;5072770;28;20292;-71
2021/10/19 03:20:09;;;;;;;58.38;2.88;;;6.90;1.00;;;;;;5077738;28;20316;-72
2021/10/19 03:22:36;;;;;;;58.40;2.88;;;6.90;1.00;;;;;;5079249;28;20209;-72
2021/10/19 03:25:03;;;;;;;58.33;2.90;;;7.00;1.00;;;;;;5078718;28;20289;-72
2021/10/19 03:27:30;;;;;;;58.47;3.00;;;7.00;1.00;;;;;;5077535;28;20241;-71
2021/10/19 03:29:56;;;;;;;58.58;2.90;;;7.00;1.00;;;;;;5079078;28;20272;-72
2021/10/19 03:32:23;;;;;;;58.28;2.85;;;7.00;1.00;;;;;;5077999;28;20268;-71
2021/10/19 03:34:50;;;;;;;58.38;2.88;;;7.00;1.00;;;;;;5079281;28;20237;-72
2021/10/19 03:37:18;;;;;;;58.90;3.65;;;7.10;1.00;;;;;;5072011;28;20240;-72
2021/10/19 03:39:45;;;;;;;58.70;4.10;;;7.10;1.00;;;;;;5071837;28;20320;-71
2021/10/19 03:42:12;;;;;;;58.38;3.10;;;7.10;1.00;;;;;;5071911;28;20749;-71
2021/10/19 03:44:39;;;;;;;58.38;2.90;;;7.20;1.00;;;;;;5072250;28;20292;-71
2021/10/19 03:47:06;;;;;;;59.20;3.60;;;7.10;1.00;;;;;;5071779;28;20241;-71
2021/10/19 03:49:33;;;;;;;58.70;3.40;;;7.20;1.00;;;;;;5072073;28;20225;-71
2021/10/19 03:52:00;;;;;;;61.65;3.83;;;7.20;1.00;;;;;;5072171;28;20296;-71
2021/10/19 03:54:28;;;;;;;58.47;3.20;;;7.20;1.00;;;;;;5071870;28;20227;-71
2021/10/19 03:56:55;;;;;;;58.38;2.90;;;7.20;1.00;;;;;;5071188;28;20215;-70
2021/10/19 03:59:22;;;;;;;58.17;3.00;;;7.30;1.00;;;;;;5071100;28;20318;-70
2021/10/19 04:01:48;;;;;;;58.47;3.00;;;7.30;1.00;;;;;;5071734;28;20296;-71
2021/10/19 04:04:15;;;;;;;58.75;3.50;;;7.30;1.00;;;;;;5071752;28;20621;-71
2021/10/19 04:06:42;;;;;;;58.25;3.15;;;7.30;1.00;;;;;;5071258;28;20248;-71
2021/10/19 04:09:09;;;;;;;58.50;2.92;;;7.40;1.00;;;;;;5071693;28;20304;-70
2021/10/19 04:11:37;;;;;;;58.17;3.15;;;7.40;1.00;;;;;;5071416;28;20240;-70
2021/10/19 04:14:04;;;;;;;58.28;2.97;;;7.40;1.00;;;;;;5071536;28;20231;-71
2021/10/19 04:16:31;;;;;;;58.38;2.80;;;7.40;1.00;;;;;;5071471;28;20233;-70
2021/10/19 04:18:58;;;;;;;58.33;3.13;;;7.50;1.00;;;;;;5071667;28;20230;-70
2021/10/19 04:21:25;;;;;;;58.35;2.85;;;7.50;1.00;;;;;;5071674;28;20867;-71
2021/10/19 04:23:52;;;;;;;58.90;3.53;;;7.50;1.00;;;;;;5071274;28;20202;-71
2021/10/19 04:26:19;;;;;;;58.30;3.00;;;7.50;1.00;;;;;;5071423;28;20213;-71
2021/10/19 04:28:47;;;;;;;58.27;3.00;;;7.60;1.00;;;;;;5071700;28;20235;-72
2021/10/19 04:31:14;;;;;;;58.17;2.63;;;7.60;1.00;;;;;;5071471;28;20527;-71
2021/10/19 04:33:41;;;;;;;58.25;2.90;;;7.60;1.00;;;;;;5071260;28;20582;-71
2021/10/19 04:36:08;;;;;;;58.30;2.92;;;7.60;1.00;;;;;;5071151;28;20209;-72
2021/10/19 04:38:36;;;;;;;58.80;3.28;;;7.70;1.00;;;;;;5071058;28;20776;-71
2021/10/19 04:41:04;;;;;;;58.17;3.00;;;7.70;1.00;;;;;;5071220;28;20241;-72
2021/10/19 04:43:31;;;;;;;58.58;3.10;;;7.70;1.00;;;;;;5071370;28;20284;-71
2021/10/19 04:45:59;;;;;;;58.28;2.60;;;7.70;1.00;;;;;;5071018;28;20211;-71
2021/10/19 04:48:27;;;;;;;58.33;2.72;;;7.70;1.00;;;;;;5071170;28;20214;-71
2021/10/19 04:50:54;;;;;;;58.20;2.70;;;7.70;1.00;;;;;;5071291;28;20206;-72
2021/10/19 04:53:20;;;;;;;58.28;2.80;;;7.70;1.00;;;;;;5070898;28;20522;-72
2021/10/19 04:55:48;;;;;;;58.37;3.10;;;7.70;1.00;;;;;;5070929;28;20217;-72
2021/10/19 04:58:15;;;;;;;58.27;3.17;;;7.70;1.00;;;;;;5071195;28;20451;-71
2021/10/19 05:00:43;;;;;;;58.20;2.80;;;7.80;1.00;;;;;;5071179;28;20460;-72
2021/10/19 05:03:11;;;;;;;58.50;2.85;;;7.80;1.00;;;;;;5071451;28;20454;-70
2021/10/19 05:05:38;;;;;;;58.28;2.80;;;7.80;1.00;;;;;;5069535;28;20207;-72
2021/10/19 05:08:06;;;;;;;58.30;2.73;;;7.80;1.00;;;;;;5071245;28;20618;-70
2021/10/19 05:10:32;;;;;;;59.60;3.10;;;7.80;1.00;;;;;;5071722;28;20464;-71
2021/10/19 05:12:59;;;;;;;58.88;3.63;;;7.80;1.00;;;;;;5074626;28;20240;-71
2021/10/19 05:15:26;;;;;;;58.13;2.70;;;7.90;1.00;;;;;;5074410;28;20213;-71
2021/10/19 05:17:53;;;;;;;60.75;4.30;;;7.90;1.00;;;;;;5074515;28;20444;-71
2021/10/19 05:20:22;;;;;;;58.70;3.30;;;7.90;1.00;;;;;;5074504;28;20230;-71
2021/10/19 05:22:49;;;;;;;58.47;3.15;;;8.00;1.00;;;;;;5074826;28;20471;-71
2021/10/19 05:25:16;;;;;;;58.40;3.20;;;8.00;1.00;;;;;;5074319;28;20297;-71
2021/10/19 05:27:44;;;;;;;58.23;2.90;;;8.00;1.00;;;;;;5074202;28;20444;-71
2021/10/19 05:30:12;;;;;;;58.70;3.50;;;8.00;1.00;;;;;;5074415;28;20473;-71
2021/10/19 05:32:39;;;;;;;58.20;2.90;;;8.00;1.00;;;;;;5073998;28;20224;-71
2021/10/19 05:35:07;;;;;;;58.17;3.00;;;8.10;1.00;;;;;;5073986;28;20575;-71
2021/10/19 05:37:35;;;;;;;58.35;3.40;;;8.10;1.00;;;;;;5073973;28;20209;-71
2021/10/19 05:40:02;;;;;;;59.27;3.60;;;8.10;1.00;;;;;;5074101;28;20226;-71
2021/10/19 05:42:29;;;;;;;58.10;3.10;;;8.10;1.00;;;;;;5074063;28;20452;-71
2021/10/19 05:44:56;;;;;;;58.38;3.08;;;8.10;1.00;;;;;;5073935;28;20457;-71
2021/10/19 05:47:23;;;;;;;58.57;3.17;;;8.10;1.00;;;;;;5073718;28;20234;-71
2021/10/19 05:49:49;;;;;;;58.17;2.90;;;8.10;1.00;;;;;;5074011;28;20549;-71
2021/10/19 05:52:16;;;;;;;58.13;3.10;;;8.20;1.00;;;;;;5073942;28;20444;-71
2021/10/19 05:54:44;;;;;;;57.97;3.10;;;8.20;1.00;;;;;;5073742;28;21020;-71
2021/10/19 05:57:11;;;;;;;58.30;2.90;;;8.20;1.00;;;;;;5073592;28;20470;-71
2021/10/19 05:59:38;;;;;;;60.50;3.10;;;8.20;1.00;;;;;;5073621;28;20465;-71
2021/10/19 06:02:05;;;;;;;57.90;2.90;;;8.30;1.00;;;;;;5073949;28;20549;-71
2021/10/19 06:04:32;;;;;;;58.17;3.00;;;8.30;1.00;;;;;;5073633;28;20451;-71
2021/10/19 06:07:00;;;;;;;58.37;2.83;;;8.30;1.00;;;;;;5073531;28;20448;-71
2021/10/19 06:09:28;;;;;;;58.30;2.80;;;8.30;1.00;;;;;;5073317;28;20477;-71
2021/10/19 06:11:56;;;;;;;58.27;2.93;;;8.40;1.00;;;;;;5073569;28;20536;-71
2021/10/19 06:14:24;;;;;;;58.30;2.93;;;8.40;1.00;;;;;;5073322;28;20477;-71
2021/10/19 06:16:52;;;;;;;58.23;2.93;;;8.40;1.00;;;;;;5073392;28;20540;-71
2021/10/19 06:19:19;;;;;;;58.23;2.80;;;8.50;1.00;;;;;;5073184;28;20518;-71
2021/10/19 06:21:46;;;;;;;58.70;3.20;;;8.50;1.00;;;;;;5072957;28;20454;-71
2021/10/19 06:24:13;;;;;;;58.23;3.20;;;8.50;1.00;;;;;;5073621;28;21144;-71
2021/10/19 06:26:40;;;;;;;60.03;3.67;;;8.50;1.00;;;;;;5072802;28;20464;-71
2021/10/19 06:29:11;;;;;;;58.23;2.77;;;8.50;1.00;;;;;;5073228;28;20480;-71
2021/10/19 06:31:39;;;;;;;58.10;2.63;;;8.60;1.00;;;;;;5073178;28;20540;-71
2021/10/19 06:34:06;;;;;;;58.30;2.57;;;8.60;1.00;;;;;;5072824;28;20489;-71
2021/10/19 06:36:33;;;;;;;58.13;2.77;;;8.70;1.00;;;;;;5073060;28;20452;-71
2021/10/19 06:39:00;;;;;;;57.97;3.00;;;8.70;1.00;;;;;;5072892;28;20465;-71
2021/10/19 06:41:27;;;;;;;58.07;2.80;;;8.80;1.00;;;;;;5072742;28;20449;-71
2021/10/19 06:43:54;;;;;;;59.17;3.20;;;8.90;1.00;;;;;;5072932;28;20446;-71
2021/10/19 06:46:22;;;;;;;58.30;2.97;;;8.90;1.00;;;;;;5072429;28;20446;-71
2021/10/19 06:48:49;;;;;;;58.23;3.10;;;8.90;1.00;;;;;;5072799;28;21044;-71
2021/10/19 06:51:16;;;;;;;58.10;2.90;;;9.00;1.00;;;;;;5072769;28;20443;-71
2021/10/19 06:53:43;;;;;;;58.40;3.17;;;9.00;1.00;;;;;;5072763;28;20541;-71
2021/10/19 06:56:10;;;;;;;59.47;3.40;;;9.10;1.00;;;;;;5072253;28;20476;-71
2021/10/19 06:58:37;;;;;;;58.27;3.20;;;9.10;1.00;;;;;;5072747;28;20478;-71
2021/10/19 07:01:05;;;;;;;58.27;3.00;;;9.10;1.00;;;;;;5072639;28;20532;-71
2021/10/19 07:03:33;;;;;;;58.80;3.30;;;9.10;1.00;;;;;;5072371;28;20547;-71
2021/10/19 07:06:05;;;;;;;58.60;3.20;;;9.20;1.00;;;;;;5072097;28;20510;-71
2021/10/19 07:08:32;;;;;;;58.13;2.80;;;9.20;1.00;;;;;;5072237;28;20462;-71
2021/10/19 07:10:59;;;;;;;58.80;3.10;;;9.30;1.00;;;;;;5072565;28;20449;-71
2021/10/19 07:13:25;;;;;;;58.37;2.97;;;9.30;1.00;;;;;;5072415;28;20485;-70
2021/10/19 07:15:54;;;;;;;58.27;2.87;;;9.30;1.00;;;;;;5072354;28;20518;-70
2021/10/19 07:18:21;;;;;;;58.50;3.30;;;9.40;1.00;;;;;;5072091;28;20939;-71
2021/10/19 07:20:50;;;;;;;58.23;2.80;;;9.50;1.00;;;;;;5072151;28;20477;-71
2021/10/19 07:23:18;;;;;;;58.07;2.67;;;9.50;1.00;;;;;;5072167;28;20946;-71
2021/10/19 07:25:46;;;;;;;58.23;3.00;;;9.60;1.00;;;;;;5071697;28;20576;-71
2021/10/19 07:28:13;;;;;;;58.20;2.80;;;9.60;1.00;;;;;;5072148;28;20460;-71
2021/10/19 07:30:40;;;;;;;58.27;2.83;;;9.70;1.00;;;;;;5071959;28;20462;-71
2021/10/19 07:33:07;;;;;;;58.90;3.73;;;9.70;1.00;;;;;;5071199;28;20549;-71
2021/10/19 07:35:34;;;;;;;58.07;2.60;;;9.80;1.00;;;;;;5071364;28;20569;-70
2021/10/19 07:38:03;;;;;;;58.07;2.70;;;9.90;1.00;;;;;;5071868;28;21005;-71
2021/10/19 07:40:29;;;;;;;58.20;2.73;;;9.90;1.00;;;;;;5072109;28;20466;-71
2021/10/19 07:42:58;;;;;;;58.50;3.30;;;9.90;1.00;;;;;;5072009;28;20478;-70
2021/10/19 07:45:26;;;;;;;57.90;2.93;;;10.00;1.00;;;;;;5071635;28;20514;-71
2021/10/19 07:47:53;;;;;;;58.13;2.73;;;10.00;1.00;;;;;;5071822;28;20840;-71
2021/10/19 07:50:21;;;;;;;58.27;2.90;;;10.10;1.00;;;;;;5071768;28;20497;-71
2021/10/19 07:52:50;;;;;;;58.30;2.90;;;10.20;1.00;;;;;;5071638;28;20945;-71
2021/10/19 07:55:19;;;;;;;58.20;2.80;;;10.30;1.00;;;;;;5071665;28;20487;-70
2021/10/19 07:57:47;;;;;;;58.37;3.03;;;10.30;1.00;;;;;;5071871;28;20481;-70
2021/10/19 08:00:15;;;;;;;58.20;2.70;;;10.40;1.00;;;;;;5071785;28;20850;-70
2021/10/19 08:02:43;;;;;;;58.57;3.43;;;10.50;1.00;;;;;;5071578;28;20461;-70
2021/10/19 08:05:13;;;;;;;58.30;2.77;;;10.60;1.00;;;;;;5071895;28;20512;-71
2021/10/19 08:07:40;;;;;;;57.93;2.57;;;10.70;1.00;;;;;;5071726;28;20442;-70
2021/10/19 08:10:08;;;;;;;59.00;2.90;;;10.80;1.00;;;;;;5071519;28;20473;-70
2021/10/19 08:12:36;;;;;;;58.27;2.93;;;10.90;1.00;;;;;;5071837;28;20449;-70
2021/10/19 08:15:04;;;;;;;58.17;2.70;;;10.90;1.00;;;;;;5071396;28;20478;-70
2021/10/19 08:17:31;;;;;;;58.83;3.10;;;11.00;1.00;;;;;;5071631;28;20472;-71
2021/10/19 08:20:00;;;;;;;58.47;3.50;;;11.00;1.00;;;;;;5071443;28;20991;-71
2021/10/19 08:22:28;;;;;;;58.17;2.70;;;11.00;1.00;;;;;;5071515;28;20482;-70
2021/10/19 08:24:56;;;;;;;58.33;3.53;;;11.00;1.00;;;;;;5071496;28;20867;-70
2021/10/19 08:27:23;;;;;;;58.07;2.80;;;11.00;1.00;;;;;;5071156;28;20459;-71
2021/10/19 08:29:52;;;;;;;58.10;3.00;;;11.00;1.00;;;;;;5071454;28;20467;-70
2021/10/19 08:32:19;;;;;;;58.23;2.80;;;11.00;1.00;;;;;;5071451;28;20475;-71
2021/10/19 08:34:46;;;;;;;59.90;3.10;;;11.10;1.00;;;;;;5071331;28;20869;-71
2021/10/19 08:37:14;;;;;;;58.23;2.90;;;11.20;1.00;;;;;;5071252;28;20451;-71
2021/10/19 08:39:41;;;;;;;58.07;2.80;;;11.40;1.00;;;;;;5071230;28;20546;-70
2021/10/19 08:42:08;;;;;;;58.17;2.80;;;11.40;1.00;;;;;;5071471;28;20469;-71
2021/10/19 08:44:35;;;;;;;58.50;3.47;;;11.40;1.00;;;;;;5072075;28;20447;-71
2021/10/19 08:47:03;;;;;;;58.50;3.00;;;11.50;1.00;;;;;;5074874;28;20538;-70
2021/10/19 08:49:30;;;;;;;58.50;3.37;;;11.60;1.00;;;;;;5075048;28;20502;-71
2021/10/19 08:51:57;;;;;;;58.20;2.90;;;11.60;1.00;;;;;;5075096;28;20538;-71
2021/10/19 08:54:24;;;;;;;58.40;3.00;;;11.60;1.00;;;;;;5074577;28;20533;-70
2021/10/19 08:56:51;;;;;;;58.17;3.27;;;11.60;1.00;;;;;;5074261;28;20455;-70
2021/10/19 08:59:22;;;;;;;58.10;3.17;;;11.60;1.00;;;;;;5074553;28;20466;-70
2021/10/19 09:01:50;;;;;;;58.37;2.90;;;11.60;1.00;;;;;;5074788;28;20442;-69
2021/10/19 09:04:18;;;;;;;58.07;2.70;;;11.60;1.00;;;;;;5074617;28;20469;-69
2021/10/19 09:06:45;;;;;;;58.37;2.90;;;11.50;1.00;;;;;;5074026;28;20824;-70
2021/10/19 09:09:14;;;;;;;58.17;3.17;;;11.40;1.00;;;;;;5067402;28;20558;-70
2021/10/19 09:11:42;;;;;;;59.27;4.13;;;11.40;1.00;;;;;;5062637;28;20535;-70
2021/10/19 09:14:10;;;;;;;58.57;3.50;;;11.30;1.00;;;;;;5054662;28;20986;-70
2021/10/19 09:16:41;;;;;;;58.10;2.77;;;11.30;1.00;;;;;;5054213;28;20598;-70
2021/10/19 09:19:08;;;;;;;58.80;3.07;;;11.30;1.00;;;;;;5054484;28;20471;-70
2021/10/19 09:21:37;;;;;;;58.07;2.93;;;11.30;1.00;;;;;;5054489;28;20535;-70
2021/10/19 09:24:18;;;;;;;58.27;2.77;;;11.30;1.00;;;;;;5054825;28;20452;-70
2021/10/19 09:26:53;;;;;;;58.27;3.03;;;11.30;1.00;;;;;;5054213;28;20448;-70
2021/10/19 09:29:21;;;;;;;58.37;2.90;;;11.40;1.00;;;;;;5054444;28;20912;-70
2021/10/19 09:31:51;;;;;;;57.97;2.63;;;11.50;1.00;;;;;;5054261;28;20490;-70
2021/10/19 09:34:18;;;;;;;58.20;2.70;;;11.60;1.00;;;;;;5054408;28;20470;-70
2021/10/19 09:36:46;;;;;;;59.50;3.30;;;11.60;1.00;;;;;;5054217;28;20535;-70
2021/10/19 09:39:13;;;;;;;58.07;2.70;;;11.70;1.00;;;;;;5054213;28;20472;-70
2021/10/19 09:41:45;;;;;;;58.37;3.40;;;11.90;1.00;;;;;;5054294;28;20444;-70
2021/10/19 09:44:13;;;;;;;58.07;2.80;;;12.00;1.00;;;;;;5054149;28;20456;-71
2021/10/19 09:46:42;;;;;;;58.33;3.30;;;12.20;1.00;;;;;;5053755;28;20519;-70
2021/10/19 09:49:09;;;;;;;58.27;2.87;;;12.40;1.00;;;;;;5053757;28;20468;-70
2021/10/19 09:51:38;;;;;;;58.20;2.67;;;12.50;1.00;;;;;;5054270;28;20525;-70
2021/10/19 09:54:09;;;;;;;57.90;2.67;;;12.60;1.00;;;;;;5054031;28;20444;-71
2021/10/19 09:56:38;;;;;;;58.23;2.77;;;12.80;1.00;;;;;;5052781;28;20480;-70
2021/10/19 09:59:06;;;;;;;58.77;2.90;;;12.90;1.00;;;;;;5053647;28;20575;-71
2021/10/19 10:01:33;;;;;;;58.27;2.80;;;13.00;1.00;;;;;;5054158;28;21020;-71
2021/10/19 10:04:01;;;;;;;58.20;2.70;;;13.10;1.00;;;;;;5053874;28;20875;-71
2021/10/19 10:06:28;;;;;;;57.93;2.70;;;13.30;1.00;;;;;;5053272;28;20444;-71
2021/10/19 10:08:57;;;;;;;58.80;2.90;;;13.40;1.00;;;;;;5053687;28;20555;-71
2021/10/19 10:11:25;;;;;;;59.13;2.80;;;13.60;1.00;;;;;;5053589;28;20881;-71
2021/10/19 10:13:57;;;;;;;58.27;2.80;;;13.70;1.00;;;;;;5053456;28;20487;-70
2021/10/19 10:16:24;;;;;;;58.30;3.20;;;13.80;1.00;;;;;;5053111;28;20522;-71
2021/10/19 10:18:51;;;;;;;58.07;2.70;;;13.90;1.00;;;;;;5053468;28;20471;-70
2021/10/19 10:21:20;;;;;;;58.40;3.13;;;14.00;1.00;;;;;;5053563;28;20448;-71
2021/10/19 10:23:47;;;;;;;58.13;2.70;;;14.10;1.00;;;;;;5060906;28;21029;-70
2021/10/19 10:26:26;;;;;;;58.70;2.83;;;14.20;1.00;;;;;;5073023;28;20475;-71
2021/10/19 10:28:53;;;;;;;58.30;2.90;;;14.30;1.00;;;;;;5073425;28;20547;-71
2021/10/19 10:31:22;;;;;;;58.10;2.70;;;14.40;1.00;;;;;;5073655;28;20821;-72
2021/10/19 10:34:01;;;;;;;58.43;3.10;;;14.50;1.00;;;;;;5073202;28;20463;-71
2021/10/19 10:36:37;;;;;;;58.57;2.70;;;14.50;1.00;;;;;;5072795;28;20514;-71
2021/10/19 10:39:06;;;;;;;58.40;3.10;;;14.60;1.00;;;;;;5073087;28;20557;-71
2021/10/19 10:41:39;;;;;;;57.93;2.80;;;14.70;1.00;;;;;;5073200;28;20447;-72
2021/10/19 10:44:09;;;;;;;57.97;2.70;;;14.80;1.00;;;;;;5073130;28;21031;-71
2021/10/19 10:46:36;;;;;;;57.87;2.70;;;14.90;1.00;;;;;;5072710;28;20448;-71
2021/10/19 10:49:06;;;;;;;57.93;2.70;;;15.00;1.00;;;;;;5072908;28;20558;-71
2021/10/19 10:51:36;;;;;;;58.00;3.00;;;15.00;1.00;;;;;;5071366;28;20463;-71
2021/10/19 10:54:03;;;;;;;57.77;2.70;;;15.00;1.00;;;;;;5072482;28;20451;-71
2021/10/19 10:56:43;;;;;;;58.20;2.70;;;15.00;1.00;;;;;;5071487;28;20580;-71
2021/10/19 10:59:10;;;;;;;58.10;2.97;;;15.00;1.00;;;;;;5071948;28;20532;-71
2021/10/19 11:01:37;;;;;;;57.57;2.40;;;15.00;1.00;;;;;;5072035;28;20452;-71
2021/10/19 11:04:06;;;;;;;58.20;2.67;;;15.00;1.00;;;;;;5071737;28;20486;-71
2021/10/19 11:06:35;;;;;;;57.67;2.70;;;14.90;1.00;;;;;;5071548;28;20482;-71
2021/10/19 11:09:06;;;;;;;57.87;2.60;;;14.90;1.00;;;;;;5071878;28;20500;-71
2021/10/19 11:11:36;;;;;;;58.23;2.80;;;14.90;1.00;;;;;;5072136;28;20447;-71
2021/10/19 11:14:07;;;;;;;58.30;2.70;;;14.90;1.00;;;;;;5072190;28;20478;-71
2021/10/19 11:16:35;;;;;;;57.70;2.50;;;15.00;1.00;;;;;;5071852;28;20486;-71
2021/10/19 11:19:05;;;;;;;58.70;3.87;;;15.00;1.00;;;;;;5072276;28;20845;-71
2021/10/19 11:21:32;;;;;;;57.63;2.57;;;15.00;1.00;;;;;;5072651;28;20533;-72
2021/10/19 11:24:00;;;;;;;59.07;3.40;;;15.00;1.00;;;;;;5072449;28;20479;-71
2021/10/19 11:26:26;;;;;;;58.00;2.60;;;15.00;1.00;;;;;;5071858;28;20479;-71
2021/10/19 11:28:57;;;;;;;58.10;2.70;;;15.10;1.00;;;;;;5071911;28;20975;-71
2021/10/19 11:31:27;;;;;;;57.57;2.63;;;15.10;1.00;;;;;;5072426;28;20463;-71
2021/10/19 11:33:56;;;;;;;58.07;2.60;;;15.10;1.00;;;;;;5071209;28;20554;-71
2021/10/19 11:36:24;;;;;;;57.97;3.13;;;15.20;1.00;;;;;;5071863;28;20575;-71
2021/10/19 11:38:53;;;;;;;58.07;2.63;;;15.20;1.00;;;;;;5071984;28;20557;-70
2021/10/19 11:41:22;;;;;;;57.97;2.70;;;15.30;1.00;;;;;;5072026;28;20452;-71
2021/10/19 11:43:51;;;;;;;58.17;3.17;;;15.40;1.00;;;;;;5072118;28;20458;-72
2021/10/19 11:46:20;;;;;;;58.20;2.50;;;15.40;1.00;;;;;;5071603;28;20531;-71
2021/10/19 11:48:50;;;;;;;57.97;2.67;;;15.50;1.00;;;;;;5071212;28;20545;-71
2021/10/19 11:51:18;;;;;;;57.97;2.70;;;15.50;1.00;;;;;;5071855;28;20602;-71
2021/10/19 11:53:47;;;;;;;58.23;2.60;;;15.60;1.00;;;;;;5070149;28;20539;-71
2021/10/19 11:56:15;;;;;;;58.37;2.47;;;15.70;1.00;;;;;;5069583;28;20485;-71
2021/10/19 11:58:49;;;;;;;57.97;2.40;;;15.80;1.00;;;;;;5071675;28;20511;-71
2021/10/19 12:01:17;;;;;;;58.13;2.60;;;16.00;1.00;;;;;;5071806;28;20874;-71
2021/10/19 12:03:44;;;;;;;57.87;2.70;;;16.30;1.00;;;;;;5071727;28;20544;-71
2021/10/19 12:06:13;;;;;;;57.87;2.37;;;16.50;1.00;;;;;;5071375;28;20547;-71
2021/10/19 12:08:43;;;;;;;57.93;2.47;;;16.70;1.00;;;;;;5071580;28;20874;-71
2021/10/19 12:11:11;;;;;;;59.07;3.13;;;16.70;1.00;;;;;;5071867;28;20539;-71
2021/10/19 12:13:39;;;;;;;58.07;2.50;;;16.70;1.00;;;;;;5071232;28;20629;-71
2021/10/19 12:16:07;;;;;;;58.17;2.70;;;16.70;1.00;;;;;;5070932;28;20542;-71
2021/10/19 12:18:43;;;;;;;58.07;2.40;;;16.70;1.00;;;;;;5071525;28;20489;-71
2021/10/19 12:21:10;;;;;;;57.87;2.70;;;16.70;1.00;;;;;;5075112;28;20445;-71
2021/10/19 12:23:47;;;;;;;58.07;2.40;;;16.70;1.00;;;;;;5075611;28;20453;-71
2021/10/19 12:26:18;;;;;;;58.47;2.97;;;16.70;1.00;;;;;;5075441;28;20853;-71
2021/10/19 12:28:49;;;;;;;57.90;2.50;;;16.70;1.00;;;;;;5071878;28;20483;-71
2021/10/19 12:31:16;;;;;;;58.17;2.53;;;16.70;1.00;;;;;;5075635;28;20448;-71
2021/10/19 12:33:43;;;;;;;57.77;2.40;;;16.70;1.00;;;;;;5074688;28;20472;-69
2021/10/19 12:36:10;;;;;;;57.77;2.40;;;16.60;1.00;;;;;;5074495;28;20524;-70
2021/10/19 12:38:41;;;;;;;58.07;2.37;;;16.60;1.00;;;;;;5075771;28;20481;-70
2021/10/19 12:41:11;;;;;;;57.60;2.30;;;16.50;1.00;;;;;;5075428;28;20811;-70
2021/10/19 12:43:40;;;;;;;57.67;2.50;;;16.40;1.00;;;;;;5074622;28;20972;-70
2021/10/19 12:46:08;;;;;;;57.40;2.30;;;16.40;1.00;;;;;;5074079;28;20948;-70
2021/10/19 12:48:37;;;;;;;58.03;2.50;;;16.40;1.00;;;;;;5075151;28;20457;-70
2021/10/19 12:51:05;;;;;;;57.97;2.50;;;16.30;1.00;;;;;;5074929;28;20454;-70
2021/10/19 12:53:32;;;;;;;57.63;2.27;;;16.40;1.00;;;;;;5073875;28;20459;-70
2021/10/19 12:56:01;;;;;;;58.30;2.67;;;16.40;1.00;;;;;;5074046;28;20485;-70